sensor_id;sensor_type;location;lat;lon;timestamp;temperature;humidity
30764;DHT22;17497;51.476;7.770;2022-12-15T00:01:59;-5.90;99.90
30764;DHT22;17497;51.476;7.770;2022-12-15T00:04:44;-5.90;99.90
30764;DHT22;17497;51.476;7.770;2022-12-15T00:07:30;-6.00;99.90
30764;DHT22;17497;51.476;7.770;2022-12-15T00:10:15;-5.90;99.90
30764;DHT22;17497;51.476;7.770;2022-12-15T00:13:01;-6.00;99.90
30764;DHT22;17497;51.476;7.770;2022-12-15T00:15:47;-6.00;99.90
30764;DHT22;17497;51.476;7.770;2022-12-15T00:18:32;-6.00;99.90
30764;DHT22;17497;51.476;7.770;2022-12-15T00:21:17;-6.00;99.90
30764;DHT22;17497;51.476;7.770;2022-12-15T00:24:03;-6.00;99.90
30764;DHT22;17497;51.476;7.770;2022-12-15T00:26:48;-6.00;99.90
30764;DHT22;17497;51.476;7.770;2022-12-15T00:29:34;-6.10;99.90
30764;DHT22;17497;51.476;7.770;2022-12-15T00:32:20;-6.10;99.90
30764;DHT22;17497;51.476;7.770;2022-12-15T00:35:06;-6.10;99.90
30764;DHT22;17497;51.476;7.770;2022-12-15T00:37:51;-6.10;99.90
30764;DHT22;17497;51.476;7.770;2022-12-15T00:40:37;-6.10;99.90
30764;DHT22;17497;51.476;7.770;2022-12-15T00:43:03;-6.00;99.90
30764;DHT22;17497;51.476;7.770;2022-12-15T00:45:30;-6.00;99.90
30764;DHT22;17497;51.476;7.770;2022-12-15T00:48:15;-6.10;99.90
30764;DHT22;17497;51.476;7.770;2022-12-15T00:50:45;-6.10;99.90
30764;DHT22;17497;51.476;7.770;2022-12-15T00:53:19;-6.10;99.90
30764;DHT22;17497;51.476;7.770;2022-12-15T00:56:04;-6.10;99.90
30764;DHT22;17497;51.476;7.770;2022-12-15T00:58:50;-6.10;99.90
30764;DHT22;17497;51.476;7.770;2022-12-15T01:01:36;-6.10;99.90
30764;DHT22;17497;51.476;7.770;2022-12-15T01:04:21;-6.20;99.90
30764;DHT22;17497;51.476;7.770;2022-12-15T01:07:06;-6.20;99.90
30764;DHT22;17497;51.476;7.770;2022-12-15T01:09:52;-6.20;99.90
30764;DHT22;17497;51.476;7.770;2022-12-15T01:12:37;-6.20;99.90
30764;DHT22;17497;51.476;7.770;2022-12-15T01:15:23;-6.30;99.90
30764;DHT22;17497;51.476;7.770;2022-12-15T01:18:08;-6.30;99.90
30764;DHT22;17497;51.476;7.770;2022-12-15T01:21:00;-6.30;99.90
30764;DHT22;17497;51.476;7.770;2022-12-15T01:23:27;-6.40;99.90
30764;DHT22;17497;51.476;7.770;2022-12-15T01:25:54;-6.40;99.90
30764;DHT22;17497;51.476;7.770;2022-12-15T01:28:21;-6.40;99.90
30764;DHT22;17497;51.476;7.770;2022-12-15T01:30:48;-6.40;99.90
30764;DHT22;17497;51.476;7.770;2022-12-15T01:33:16;-6.40;99.90
30764;DHT22;17497;51.476;7.770;2022-12-15T01:35:43;-6.40;99.90
30764;DHT22;17497;51.476;7.770;2022-12-15T01:38:10;-6.40;99.90
30764;DHT22;17497;51.476;7.770;2022-12-15T01:40:37;-6.40;99.90
30764;DHT22;17497;51.476;7.770;2022-12-15T01:43:21;-6.40;99.90
30764;DHT22;17497;51.476;7.770;2022-12-15T01:46:11;-6.40;99.90
30764;DHT22;17497;51.476;7.770;2022-12-15T01:53:54;-6.40;99.90
30764;DHT22;17497;51.476;7.770;2022-12-15T01:56:25;-6.40;99.90
30764;DHT22;17497;51.476;7.770;2022-12-15T01:58:54;-6.40;99.90
30764;DHT22;17497;51.476;7.770;2022-12-15T02:01:22;-6.40;99.90
30764;DHT22;17497;51.476;7.770;2022-12-15T02:03:49;-6.40;99.90
30764;DHT22;17497;51.476;7.770;2022-12-15T02:06:16;-6.40;99.90
30764;DHT22;17497;51.476;7.770;2022-12-15T02:08:49;-6.40;99.90
30764;DHT22;17497;51.476;7.770;2022-12-15T02:14:57;-6.30;99.90
30764;DHT22;17497;51.476;7.770;2022-12-15T02:18:01;-6.30;99.90
30764;DHT22;17497;51.476;7.770;2022-12-15T02:23:38;-6.30;99.90
30764;DHT22;17497;51.476;7.770;2022-12-15T02:31:46;-6.30;99.90
30764;DHT22;17497;51.476;7.770;2022-12-15T02:37:18;-6.30;99.90
30764;DHT22;17497;51.476;7.770;2022-12-15T02:39:46;-6.30;99.90
30764;DHT22;17497;51.476;7.770;2022-12-15T02:47:56;-6.30;99.90
30764;DHT22;17497;51.476;7.770;2022-12-15T03:01:57;-6.30;99.90
30764;DHT22;17497;51.476;7.770;2022-12-15T03:04:26;-6.20;99.90
30764;DHT22;17497;51.476;7.770;2022-12-15T03:06:57;-6.20;99.90
30764;DHT22;17497;51.476;7.770;2022-12-15T03:09:27;-6.20;99.90
30764;DHT22;17497;51.476;7.770;2022-12-15T03:11:53;-6.20;99.90
30764;DHT22;17497;51.476;7.770;2022-12-15T03:14:20;-6.10;99.90
30764;DHT22;17497;51.476;7.770;2022-12-15T03:16:47;-6.10;99.90
30764;DHT22;17497;51.476;7.770;2022-12-15T03:19:14;-6.00;99.90
30764;DHT22;17497;51.476;7.770;2022-12-15T03:21:40;-5.90;99.90
30764;DHT22;17497;51.476;7.770;2022-12-15T03:24:07;-5.80;99.90
30764;DHT22;17497;51.476;7.770;2022-12-15T03:26:34;-5.70;99.90
30764;DHT22;17497;51.476;7.770;2022-12-15T03:29:01;-5.60;99.90
30764;DHT22;17497;51.476;7.770;2022-12-15T03:31:28;-5.40;99.90
30764;DHT22;17497;51.476;7.770;2022-12-15T03:33:55;-5.30;99.90
30764;DHT22;17497;51.476;7.770;2022-12-15T03:36:21;-5.20;99.90
30764;DHT22;17497;51.476;7.770;2022-12-15T03:38:48;-5.10;99.90
30764;DHT22;17497;51.476;7.770;2022-12-15T03:41:15;-5.10;99.90
30764;DHT22;17497;51.476;7.770;2022-12-15T03:43:43;-5.20;99.90
30764;DHT22;17497;51.476;7.770;2022-12-15T03:46:15;-5.30;99.90
30764;DHT22;17497;51.476;7.770;2022-12-15T03:48:42;-5.30;99.90
30764;DHT22;17497;51.476;7.770;2022-12-15T03:51:08;-5.30;99.90
30764;DHT22;17497;51.476;7.770;2022-12-15T03:53:35;-5.30;99.90
30764;DHT22;17497;51.476;7.770;2022-12-15T03:56:02;-5.40;99.90
30764;DHT22;17497;51.476;7.770;2022-12-15T03:58:29;-5.50;99.90
30764;DHT22;17497;51.476;7.770;2022-12-15T04:00:56;-5.50;99.90
30764;DHT22;17497;51.476;7.770;2022-12-15T04:03:22;-5.50;99.90
30764;DHT22;17497;51.476;7.770;2022-12-15T04:05:49;-5.60;99.90
30764;DHT22;17497;51.476;7.770;2022-12-15T04:08:16;-5.70;99.90
30764;DHT22;17497;51.476;7.770;2022-12-15T04:10:42;-5.80;99.90
30764;DHT22;17497;51.476;7.770;2022-12-15T04:13:10;-5.80;99.90
30764;DHT22;17497;51.476;7.770;2022-12-15T04:15:38;-5.90;99.90
30764;DHT22;17497;51.476;7.770;2022-12-15T04:18:07;-5.90;99.90
30764;DHT22;17497;51.476;7.770;2022-12-15T04:20:38;-5.90;99.90
30764;DHT22;17497;51.476;7.770;2022-12-15T04:23:05;-5.90;99.90
30764;DHT22;17497;51.476;7.770;2022-12-15T04:25:34;-6.00;99.90
30764;DHT22;17497;51.476;7.770;2022-12-15T04:28:19;-6.00;99.90
30764;DHT22;17497;51.476;7.770;2022-12-15T04:33:57;-6.00;99.90
30764;DHT22;17497;51.476;7.770;2022-12-15T04:36:46;-6.00;99.90
30764;DHT22;17497;51.476;7.770;2022-12-15T04:39:35;-6.00;99.90
30764;DHT22;17497;51.476;7.770;2022-12-15T04:42:21;-6.00;99.90
30764;DHT22;17497;51.476;7.770;2022-12-15T04:45:07;-5.90;99.90
30764;DHT22;17497;51.476;7.770;2022-12-15T04:47:52;-5.90;99.90
30764;DHT22;17497;51.476;7.770;2022-12-15T04:50:38;-6.00;99.90
30764;DHT22;17497;51.476;7.770;2022-12-15T04:53:23;-6.10;99.90
30764;DHT22;17497;51.476;7.770;2022-12-15T04:56:11;-6.10;99.90
30764;DHT22;17497;51.476;7.770;2022-12-15T04:58:57;-6.00;99.90
30764;DHT22;17497;51.476;7.770;2022-12-15T05:01:43;-6.00;99.90
30764;DHT22;17497;51.476;7.770;2022-12-15T05:04:28;-6.00;99.90
30764;DHT22;17497;51.476;7.770;2022-12-15T05:07:14;-6.10;99.90
30764;DHT22;17497;51.476;7.770;2022-12-15T05:09:59;-6.00;99.90
30764;DHT22;17497;51.476;7.770;2022-12-15T05:12:45;-6.00;99.90
30764;DHT22;17497;51.476;7.770;2022-12-15T05:15:31;-6.00;99.90
30764;DHT22;17497;51.476;7.770;2022-12-15T05:18:18;-6.00;99.90
30764;DHT22;17497;51.476;7.770;2022-12-15T05:21:03;-6.00;99.90
30764;DHT22;17497;51.476;7.770;2022-12-15T05:23:48;-6.00;99.90
30764;DHT22;17497;51.476;7.770;2022-12-15T05:26:34;-6.00;99.90
30764;DHT22;17497;51.476;7.770;2022-12-15T05:29:20;-6.00;99.90
30764;DHT22;17497;51.476;7.770;2022-12-15T05:32:06;-6.00;99.90
30764;DHT22;17497;51.476;7.770;2022-12-15T05:34:35;-6.00;99.90
30764;DHT22;17497;51.476;7.770;2022-12-15T05:37:03;-6.00;99.90
30764;DHT22;17497;51.476;7.770;2022-12-15T05:39:30;-6.10;99.90
30764;DHT22;17497;51.476;7.770;2022-12-15T05:41:57;-6.10;99.90
30764;DHT22;17497;51.476;7.770;2022-12-15T05:44:24;-6.10;99.90
30764;DHT22;17497;51.476;7.770;2022-12-15T05:46:51;-6.10;99.90
30764;DHT22;17497;51.476;7.770;2022-12-15T05:49:18;-6.00;99.90
30764;DHT22;17497;51.476;7.770;2022-12-15T05:51:46;-6.10;99.90
30764;DHT22;17497;51.476;7.770;2022-12-15T05:54:16;-6.10;99.90
30764;DHT22;17497;51.476;7.770;2022-12-15T05:56:44;-6.10;99.90
30764;DHT22;17497;51.476;7.770;2022-12-15T05:59:11;-6.10;99.90
30764;DHT22;17497;51.476;7.770;2022-12-15T06:01:38;-6.10;99.90
30764;DHT22;17497;51.476;7.770;2022-12-15T06:04:05;-6.10;99.90
30764;DHT22;17497;51.476;7.770;2022-12-15T06:06:33;-6.10;99.90
30764;DHT22;17497;51.476;7.770;2022-12-15T06:08:59;-6.10;99.90
30764;DHT22;17497;51.476;7.770;2022-12-15T06:11:26;-6.10;99.90
30764;DHT22;17497;51.476;7.770;2022-12-15T06:13:54;-6.00;99.90
30764;DHT22;17497;51.476;7.770;2022-12-15T06:16:22;-6.00;99.90
30764;DHT22;17497;51.476;7.770;2022-12-15T06:18:53;-6.10;99.90
30764;DHT22;17497;51.476;7.770;2022-12-15T06:21:28;-6.20;99.90
30764;DHT22;17497;51.476;7.770;2022-12-15T06:23:56;-6.10;99.90
30764;DHT22;17497;51.476;7.770;2022-12-15T06:26:26;-6.20;99.90
30764;DHT22;17497;51.476;7.770;2022-12-15T06:28:56;-6.20;99.90
30764;DHT22;17497;51.476;7.770;2022-12-15T06:31:23;-6.20;99.90
30764;DHT22;17497;51.476;7.770;2022-12-15T06:33:52;-6.20;99.90
30764;DHT22;17497;51.476;7.770;2022-12-15T06:36:27;-6.20;99.90
30764;DHT22;17497;51.476;7.770;2022-12-15T06:38:57;-6.20;99.90
30764;DHT22;17497;51.476;7.770;2022-12-15T06:41:24;-6.20;99.90
30764;DHT22;17497;51.476;7.770;2022-12-15T06:43:52;-6.20;99.90
30764;DHT22;17497;51.476;7.770;2022-12-15T06:46:22;-6.20;99.90
30764;DHT22;17497;51.476;7.770;2022-12-15T06:48:49;-6.20;99.90
30764;DHT22;17497;51.476;7.770;2022-12-15T06:51:16;-6.20;99.90
30764;DHT22;17497;51.476;7.770;2022-12-15T06:53:44;-6.20;99.90
30764;DHT22;17497;51.476;7.770;2022-12-15T06:56:26;-6.20;99.90
30764;DHT22;17497;51.476;7.770;2022-12-15T06:58:59;-6.30;99.90
30764;DHT22;17497;51.476;7.770;2022-12-15T07:01:26;-6.30;99.90
30764;DHT22;17497;51.476;7.770;2022-12-15T07:03:53;-6.30;99.90
30764;DHT22;17497;51.476;7.770;2022-12-15T07:06:21;-6.40;99.90
30764;DHT22;17497;51.476;7.770;2022-12-15T07:08:52;-6.40;99.90
30764;DHT22;17497;51.476;7.770;2022-12-15T07:11:20;-6.40;99.90
30764;DHT22;17497;51.476;7.770;2022-12-15T07:13:48;-6.30;99.90
30764;DHT22;17497;51.476;7.770;2022-12-15T07:16:15;-6.20;99.90
30764;DHT22;17497;51.476;7.770;2022-12-15T07:18:42;-6.20;99.90
30764;DHT22;17497;51.476;7.770;2022-12-15T07:21:09;-6.20;99.90
30764;DHT22;17497;51.476;7.770;2022-12-15T07:23:36;-6.20;99.90
30764;DHT22;17497;51.476;7.770;2022-12-15T07:26:20;-6.30;99.90
30764;DHT22;17497;51.476;7.770;2022-12-15T07:28:47;-6.30;99.90
30764;DHT22;17497;51.476;7.770;2022-12-15T07:31:14;-6.20;99.90
30764;DHT22;17497;51.476;7.770;2022-12-15T07:33:41;-6.30;99.90
30764;DHT22;17497;51.476;7.770;2022-12-15T07:36:08;-6.20;99.90
30764;DHT22;17497;51.476;7.770;2022-12-15T07:38:35;-6.20;99.90
30764;DHT22;17497;51.476;7.770;2022-12-15T07:41:06;-6.20;99.90
30764;DHT22;17497;51.476;7.770;2022-12-15T07:43:33;-6.20;99.90
30764;DHT22;17497;51.476;7.770;2022-12-15T07:46:02;-6.10;99.90
30764;DHT22;17497;51.476;7.770;2022-12-15T07:48:30;-6.10;99.90
30764;DHT22;17497;51.476;7.770;2022-12-15T07:50:57;-6.20;99.90
30764;DHT22;17497;51.476;7.770;2022-12-15T07:53:34;-6.20;99.90
30764;DHT22;17497;51.476;7.770;2022-12-15T07:56:05;-6.10;99.90
30764;DHT22;17497;51.476;7.770;2022-12-15T07:58:34;-6.00;99.90
30764;DHT22;17497;51.476;7.770;2022-12-15T08:01:06;-6.00;99.90
30764;DHT22;17497;51.476;7.770;2022-12-15T08:03:34;-5.90;99.90
30764;DHT22;17497;51.476;7.770;2022-12-15T08:06:10;-5.80;99.90
30764;DHT22;17497;51.476;7.770;2022-12-15T08:08:38;-5.80;99.90
30764;DHT22;17497;51.476;7.770;2022-12-15T08:11:06;-5.80;99.90
30764;DHT22;17497;51.476;7.770;2022-12-15T08:13:34;-5.70;99.90
30764;DHT22;17497;51.476;7.770;2022-12-15T08:16:21;-5.60;99.90
30764;DHT22;17497;51.476;7.770;2022-12-15T08:18:48;-5.60;99.90
30764;DHT22;17497;51.476;7.770;2022-12-15T08:21:14;-5.60;99.90
30764;DHT22;17497;51.476;7.770;2022-12-15T08:23:41;-5.60;99.90
30764;DHT22;17497;51.476;7.770;2022-12-15T08:26:13;-5.50;99.90
30764;DHT22;17497;51.476;7.770;2022-12-15T08:28:41;-5.50;99.90
30764;DHT22;17497;51.476;7.770;2022-12-15T08:31:09;-5.50;99.90
30764;DHT22;17497;51.476;7.770;2022-12-15T08:33:37;-5.40;99.90
30764;DHT22;17497;51.476;7.770;2022-12-15T08:36:07;-5.40;99.90
30764;DHT22;17497;51.476;7.770;2022-12-15T08:38:35;-5.30;99.90
30764;DHT22;17497;51.476;7.770;2022-12-15T08:41:15;-5.20;99.90
30764;DHT22;17497;51.476;7.770;2022-12-15T08:43:42;-5.30;99.90
30764;DHT22;17497;51.476;7.770;2022-12-15T08:46:15;-5.30;99.90
30764;DHT22;17497;51.476;7.770;2022-12-15T08:48:42;-5.30;99.90
30764;DHT22;17497;51.476;7.770;2022-12-15T08:51:09;-5.20;99.90
30764;DHT22;17497;51.476;7.770;2022-12-15T08:53:36;-5.10;99.90
30764;DHT22;17497;51.476;7.770;2022-12-15T08:56:09;-5.00;99.90
30764;DHT22;17497;51.476;7.770;2022-12-15T08:58:36;-5.00;99.90
30764;DHT22;17497;51.476;7.770;2022-12-15T09:01:15;-4.90;99.90
30764;DHT22;17497;51.476;7.770;2022-12-15T09:03:50;-4.80;99.90
30764;DHT22;17497;51.476;7.770;2022-12-15T09:06:21;-4.70;99.90
30764;DHT22;17497;51.476;7.770;2022-12-15T09:08:47;-4.60;99.90
30764;DHT22;17497;51.476;7.770;2022-12-15T09:11:16;-4.60;99.90
30764;DHT22;17497;51.476;7.770;2022-12-15T09:13:43;-4.50;99.90
30764;DHT22;17497;51.476;7.770;2022-12-15T09:16:13;-4.50;99.90
30764;DHT22;17497;51.476;7.770;2022-12-15T09:18:45;-4.40;99.90
30764;DHT22;17497;51.476;7.770;2022-12-15T09:21:12;-4.40;99.90
30764;DHT22;17497;51.476;7.770;2022-12-15T09:23:40;-4.20;99.90
30764;DHT22;17497;51.476;7.770;2022-12-15T09:26:12;-3.90;99.90
30764;DHT22;17497;51.476;7.770;2022-12-15T09:28:40;-3.70;99.90
30764;DHT22;17497;51.476;7.770;2022-12-15T09:31:14;-3.60;99.90
30764;DHT22;17497;51.476;7.770;2022-12-15T09:33:41;-3.40;99.90
30764;DHT22;17497;51.476;7.770;2022-12-15T09:36:10;-3.30;99.90
30764;DHT22;17497;51.476;7.770;2022-12-15T09:38:40;-3.10;99.90
30764;DHT22;17497;51.476;7.770;2022-12-15T09:49:41;-2.30;99.90
30764;DHT22;17497;51.476;7.770;2022-12-15T09:52:12;-2.20;99.90
30764;DHT22;17497;51.476;7.770;2022-12-15T09:54:40;-2.10;99.90
30764;DHT22;17497;51.476;7.770;2022-12-15T09:57:43;-1.90;99.90
30764;DHT22;17497;51.476;7.770;2022-12-15T10:08:57;-1.60;99.90
30764;DHT22;17497;51.476;7.770;2022-12-15T10:17:47;-1.20;99.90
30764;DHT22;17497;51.476;7.770;2022-12-15T10:20:20;-1.10;99.90
30764;DHT22;17497;51.476;7.770;2022-12-15T10:22:48;-1.10;99.90
30764;DHT22;17497;51.476;7.770;2022-12-15T10:25:20;-1.10;99.90
30764;DHT22;17497;51.476;7.770;2022-12-15T10:30:58;-0.40;99.90
30764;DHT22;17497;51.476;7.770;2022-12-15T10:33:30;0.00;99.90
30764;DHT22;17497;51.476;7.770;2022-12-15T10:36:00;0.50;99.90
30764;DHT22;17497;51.476;7.770;2022-12-15T10:38:35;1.00;99.90
30764;DHT22;17497;51.476;7.770;2022-12-15T10:41:09;0.80;99.90
30764;DHT22;17497;51.476;7.770;2022-12-15T10:43:45;0.90;99.90
30764;DHT22;17497;51.476;7.770;2022-12-15T10:46:26;1.50;99.90
30764;DHT22;17497;51.476;7.770;2022-12-15T10:48:58;1.20;99.90
30764;DHT22;17497;51.476;7.770;2022-12-15T10:51:30;1.80;99.90
30764;DHT22;17497;51.476;7.770;2022-12-15T10:56:29;2.40;99.90
30764;DHT22;17497;51.476;7.770;2022-12-15T10:59:30;2.50;99.90
30764;DHT22;17497;51.476;7.770;2022-12-15T11:10:00;1.50;99.90
30764;DHT22;17497;51.476;7.770;2022-12-15T11:12:30;1.30;99.90
30764;DHT22;17497;51.476;7.770;2022-12-15T11:20:22;0.90;99.90
30764;DHT22;17497;51.476;7.770;2022-12-15T11:22:59;0.90;99.90
30764;DHT22;17497;51.476;7.770;2022-12-15T11:25:44;0.90;99.90
30764;DHT22;17497;51.476;7.770;2022-12-15T11:28:21;1.10;99.90
30764;DHT22;17497;51.476;7.770;2022-12-15T11:30:56;1.60;99.90
30764;DHT22;17497;51.476;7.770;2022-12-15T11:33:25;1.90;99.90
30764;DHT22;17497;51.476;7.770;2022-12-15T11:36:11;2.00;99.90
30764;DHT22;17497;51.476;7.770;2022-12-15T11:38:51;1.90;99.90
30764;DHT22;17497;51.476;7.770;2022-12-15T11:44:51;1.90;99.90
30764;DHT22;17497;51.476;7.770;2022-12-15T11:47:36;1.90;99.90
30764;DHT22;17497;51.476;7.770;2022-12-15T11:50:17;1.30;99.90
30764;DHT22;17497;51.476;7.770;2022-12-15T11:58:42;1.70;99.90
30764;DHT22;17497;51.476;7.770;2022-12-15T12:09:46;2.50;99.90
30764;DHT22;17497;51.476;7.770;2022-12-15T12:58:37;1.80;99.90
30764;DHT22;17497;51.476;7.770;2022-12-15T13:03:41;2.00;99.90
30764;DHT22;17497;51.476;7.770;2022-12-15T13:06:54;2.20;99.90
30764;DHT22;17497;51.476;7.770;2022-12-15T13:14:17;3.10;99.90
30764;DHT22;17497;51.476;7.770;2022-12-15T13:22:31;3.10;99.90
30764;DHT22;17497;51.476;7.770;2022-12-15T13:24:59;3.00;99.90
30764;DHT22;17497;51.476;7.770;2022-12-15T13:27:34;3.30;99.90
30764;DHT22;17497;51.476;7.770;2022-12-15T13:32:37;2.70;99.90
30764;DHT22;17497;51.476;7.770;2022-12-15T13:37:45;2.50;99.90
30764;DHT22;17497;51.476;7.770;2022-12-15T13:45:54;2.90;99.90
30764;DHT22;17497;51.476;7.770;2022-12-15T13:48:44;3.10;99.90
30764;DHT22;17497;51.476;7.770;2022-12-15T13:51:37;3.20;99.90
30764;DHT22;17497;51.476;7.770;2022-12-15T13:59:36;3.50;99.90
30764;DHT22;17497;51.476;7.770;2022-12-15T14:10:37;3.00;99.90
30764;DHT22;17497;51.476;7.770;2022-12-15T14:13:28;3.20;99.90
30764;DHT22;17497;51.476;7.770;2022-12-15T14:16:12;3.10;99.90
30764;DHT22;17497;51.476;7.770;2022-12-15T14:18:41;2.90;99.90
30764;DHT22;17497;51.476;7.770;2022-12-15T14:21:20;2.70;99.90
30764;DHT22;17497;51.476;7.770;2022-12-15T14:23:47;2.80;99.90
30764;DHT22;17497;51.476;7.770;2022-12-15T14:26:36;3.00;99.90
30764;DHT22;17497;51.476;7.770;2022-12-15T14:29:04;3.00;99.90
30764;DHT22;17497;51.476;7.770;2022-12-15T14:31:32;2.80;99.90
30764;DHT22;17497;51.476;7.770;2022-12-15T14:34:05;2.40;99.90
30764;DHT22;17497;51.476;7.770;2022-12-15T14:36:34;2.50;99.90
30764;DHT22;17497;51.476;7.770;2022-12-15T14:39:05;2.40;99.90
30764;DHT22;17497;51.476;7.770;2022-12-15T14:41:36;2.40;99.90
30764;DHT22;17497;51.476;7.770;2022-12-15T14:44:07;2.40;99.90
30764;DHT22;17497;51.476;7.770;2022-12-15T14:46:59;2.30;99.90
30764;DHT22;17497;51.476;7.770;2022-12-15T14:49:30;2.30;99.90
30764;DHT22;17497;51.476;7.770;2022-12-15T14:52:01;2.10;99.90
30764;DHT22;17497;51.476;7.770;2022-12-15T14:54:35;2.00;99.90
30764;DHT22;17497;51.476;7.770;2022-12-15T14:57:13;1.80;99.90
30764;DHT22;17497;51.476;7.770;2022-12-15T14:59:42;1.60;99.90
30764;DHT22;17497;51.476;7.770;2022-12-15T15:02:27;1.40;99.90
30764;DHT22;17497;51.476;7.770;2022-12-15T15:07:22;0.90;99.90
30764;DHT22;17497;51.476;7.770;2022-12-15T15:09:50;0.70;99.90
30764;DHT22;17497;51.476;7.770;2022-12-15T15:12:21;0.50;99.90
30764;DHT22;17497;51.476;7.770;2022-12-15T15:15:01;0.40;99.90
30764;DHT22;17497;51.476;7.770;2022-12-15T15:17:47;0.30;99.90
30764;DHT22;17497;51.476;7.770;2022-12-15T15:20:23;0.30;99.90
30764;DHT22;17497;51.476;7.770;2022-12-15T15:25:36;0.10;99.90
30764;DHT22;17497;51.476;7.770;2022-12-15T15:30:48;0.00;99.90
30764;DHT22;17497;51.476;7.770;2022-12-15T15:33:16;0.00;99.90
30764;DHT22;17497;51.476;7.770;2022-12-15T15:35:45;-0.10;99.90
30764;DHT22;17497;51.476;7.770;2022-12-15T15:41:00;-0.20;99.90
30764;DHT22;17497;51.476;7.770;2022-12-15T15:43:28;-0.30;99.90
30764;DHT22;17497;51.476;7.770;2022-12-15T15:45:59;-0.30;99.90
30764;DHT22;17497;51.476;7.770;2022-12-15T15:48:30;-0.40;99.90
30764;DHT22;17497;51.476;7.770;2022-12-15T15:50:59;-0.40;99.90
30764;DHT22;17497;51.476;7.770;2022-12-15T15:53:26;-0.40;99.90
30764;DHT22;17497;51.476;7.770;2022-12-15T15:55:55;-0.60;99.90
30764;DHT22;17497;51.476;7.770;2022-12-15T15:58:22;-0.60;99.90
30764;DHT22;17497;51.476;7.770;2022-12-15T16:00:49;-0.80;99.90
30764;DHT22;17497;51.476;7.770;2022-12-15T16:03:16;-0.80;99.90
30764;DHT22;17497;51.476;7.770;2022-12-15T16:05:43;-0.90;99.90
30764;DHT22;17497;51.476;7.770;2022-12-15T16:08:17;-1.00;99.90
30764;DHT22;17497;51.476;7.770;2022-12-15T16:10:45;-1.00;99.90
30764;DHT22;17497;51.476;7.770;2022-12-15T16:13:15;-1.10;99.90
30764;DHT22;17497;51.476;7.770;2022-12-15T16:15:49;-1.20;99.90
30764;DHT22;17497;51.476;7.770;2022-12-15T16:18:16;-1.30;99.90
30764;DHT22;17497;51.476;7.770;2022-12-15T16:20:43;-1.30;99.90
30764;DHT22;17497;51.476;7.770;2022-12-15T16:23:26;-1.40;99.90
30764;DHT22;17497;51.476;7.770;2022-12-15T16:25:58;-1.50;99.90
30764;DHT22;17497;51.476;7.770;2022-12-15T16:28:27;-1.50;99.90
30764;DHT22;17497;51.476;7.770;2022-12-15T16:30:56;-1.50;99.90
30764;DHT22;17497;51.476;7.770;2022-12-15T16:33:26;-1.50;99.90
30764;DHT22;17497;51.476;7.770;2022-12-15T16:35:53;-1.60;99.90
30764;DHT22;17497;51.476;7.770;2022-12-15T16:40:52;-1.70;99.90
30764;DHT22;17497;51.476;7.770;2022-12-15T16:43:23;-1.70;99.90
30764;DHT22;17497;51.476;7.770;2022-12-15T16:45:52;-1.70;99.90
30764;DHT22;17497;51.476;7.770;2022-12-15T16:48:19;-1.70;99.90
30764;DHT22;17497;51.476;7.770;2022-12-15T16:50:56;-1.70;99.90
30764;DHT22;17497;51.476;7.770;2022-12-15T16:53:28;-1.80;99.90
30764;DHT22;17497;51.476;7.770;2022-12-15T16:55:57;-1.80;99.90
30764;DHT22;17497;51.476;7.770;2022-12-15T16:58:26;-1.80;99.90
30764;DHT22;17497;51.476;7.770;2022-12-15T17:00:54;-1.80;99.90
30764;DHT22;17497;51.476;7.770;2022-12-15T17:03:21;-1.80;99.90
30764;DHT22;17497;51.476;7.770;2022-12-15T17:05:54;-1.90;99.90
30764;DHT22;17497;51.476;7.770;2022-12-15T17:08:37;-1.90;99.90
30764;DHT22;17497;51.476;7.770;2022-12-15T17:11:08;-1.90;99.90
30764;DHT22;17497;51.476;7.770;2022-12-15T17:13:38;-2.00;99.90
30764;DHT22;17497;51.476;7.770;2022-12-15T17:16:11;-2.00;99.90
30764;DHT22;17497;51.476;7.770;2022-12-15T17:18:41;-2.00;99.90
30764;DHT22;17497;51.476;7.770;2022-12-15T17:21:39;-2.10;99.90
30764;DHT22;17497;51.476;7.770;2022-12-15T17:24:07;-2.10;99.90
30764;DHT22;17497;51.476;7.770;2022-12-15T17:26:37;-2.10;99.90
30764;DHT22;17497;51.476;7.770;2022-12-15T17:29:13;-2.00;99.90
30764;DHT22;17497;51.476;7.770;2022-12-15T17:31:41;-2.00;99.90
30764;DHT22;17497;51.476;7.770;2022-12-15T17:34:27;-1.90;99.90
30764;DHT22;17497;51.476;7.770;2022-12-15T17:36:56;-1.80;99.90
30764;DHT22;17497;51.476;7.770;2022-12-15T17:39:23;-1.90;99.90
30764;DHT22;17497;51.476;7.770;2022-12-15T17:41:51;-1.90;99.90
30764;DHT22;17497;51.476;7.770;2022-12-15T17:44:30;-2.00;99.90
30764;DHT22;17497;51.476;7.770;2022-12-15T17:47:03;-2.10;99.90
30764;DHT22;17497;51.476;7.770;2022-12-15T17:49:30;-2.20;99.90
30764;DHT22;17497;51.476;7.770;2022-12-15T17:52:13;-2.20;99.90
30764;DHT22;17497;51.476;7.770;2022-12-15T17:54:42;-2.30;99.90
30764;DHT22;17497;51.476;7.770;2022-12-15T17:57:10;-2.40;99.90
30764;DHT22;17497;51.476;7.770;2022-12-15T17:59:37;-2.50;99.90
30764;DHT22;17497;51.476;7.770;2022-12-15T18:02:04;-2.50;99.90
30764;DHT22;17497;51.476;7.770;2022-12-15T18:04:31;-2.50;99.90
30764;DHT22;17497;51.476;7.770;2022-12-15T18:06:58;-2.50;99.90
30764;DHT22;17497;51.476;7.770;2022-12-15T18:09:28;-2.50;99.90
30764;DHT22;17497;51.476;7.770;2022-12-15T18:11:55;-2.50;99.90
30764;DHT22;17497;51.476;7.770;2022-12-15T18:14:22;-2.60;99.90
30764;DHT22;17497;51.476;7.770;2022-12-15T18:16:49;-2.60;99.90
30764;DHT22;17497;51.476;7.770;2022-12-15T18:19:15;-2.60;99.90
30764;DHT22;17497;51.476;7.770;2022-12-15T18:21:42;-2.70;99.90
30764;DHT22;17497;51.476;7.770;2022-12-15T18:24:11;-2.70;99.90
30764;DHT22;17497;51.476;7.770;2022-12-15T18:26:38;-2.80;99.90
30764;DHT22;17497;51.476;7.770;2022-12-15T18:29:16;-2.80;99.90
30764;DHT22;17497;51.476;7.770;2022-12-15T18:31:47;-2.80;99.90
30764;DHT22;17497;51.476;7.770;2022-12-15T18:34:18;-2.80;99.90
30764;DHT22;17497;51.476;7.770;2022-12-15T18:36:48;-2.80;99.90
30764;DHT22;17497;51.476;7.770;2022-12-15T18:39:21;-2.80;99.90
30764;DHT22;17497;51.476;7.770;2022-12-15T18:41:52;-2.90;99.90
30764;DHT22;17497;51.476;7.770;2022-12-15T18:44:27;-2.90;99.90
30764;DHT22;17497;51.476;7.770;2022-12-15T18:46:56;-3.00;99.90
30764;DHT22;17497;51.476;7.770;2022-12-15T18:49:23;-3.00;99.90
30764;DHT22;17497;51.476;7.770;2022-12-15T18:51:50;-3.00;99.90
30764;DHT22;17497;51.476;7.770;2022-12-15T18:54:22;-3.00;99.90
30764;DHT22;17497;51.476;7.770;2022-12-15T18:56:49;-3.00;99.90
30764;DHT22;17497;51.476;7.770;2022-12-15T18:59:17;-3.00;99.90
30764;DHT22;17497;51.476;7.770;2022-12-15T19:01:45;-3.10;99.90
30764;DHT22;17497;51.476;7.770;2022-12-15T19:04:13;-3.10;99.90
30764;DHT22;17497;51.476;7.770;2022-12-15T19:06:40;-3.20;99.90
30764;DHT22;17497;51.476;7.770;2022-12-15T19:09:14;-3.10;99.90
30764;DHT22;17497;51.476;7.770;2022-12-15T19:11:42;-3.20;99.90
30764;DHT22;17497;51.476;7.770;2022-12-15T19:14:30;-3.20;99.90
30764;DHT22;17497;51.476;7.770;2022-12-15T19:17:20;-3.20;99.90
30764;DHT22;17497;51.476;7.770;2022-12-15T19:20:22;-3.20;99.90
30764;DHT22;17497;51.476;7.770;2022-12-15T19:23:07;-3.20;99.90
30764;DHT22;17497;51.476;7.770;2022-12-15T19:25:34;-3.30;99.90
30764;DHT22;17497;51.476;7.770;2022-12-15T19:28:01;-3.30;99.90